createdAt,value
2023-05-13T00:00:48.566Z,22.37
2023-05-13T00:05:49.956Z,22.42
2023-05-13T00:10:51.433Z,22.43
2023-05-13T00:15:53.268Z,22.37
2023-05-13T00:20:54.746Z,22.34
2023-05-13T00:25:56.142Z,22.34
2023-05-13T00:30:57.519Z,22.35
2023-05-13T00:35:58.893Z,22.37
2023-05-13T00:41:00.283Z,22.42
2023-05-13T00:46:01.778Z,22.39
2023-05-13T00:51:03.191Z,22.36
2023-05-13T00:56:04.881Z,22.38
2023-05-13T01:01:40.981Z,22.35
2023-05-13T01:07:19.536Z,22.30
2023-05-13T01:12:29.581Z,22.31
2023-05-13T01:18:03.604Z,22.32
2023-05-13T01:23:06.166Z,22.25
2023-05-13T01:28:08.112Z,22.22
2023-05-13T01:33:09.619Z,22.24
2023-05-13T01:38:11.003Z,22.28
2023-05-13T01:43:12.465Z,22.29
2023-05-13T01:48:13.864Z,22.30
2023-05-13T01:53:15.242Z,22.29
2023-05-13T01:58:16.626Z,22.28
2023-05-13T02:03:18.517Z,22.29
2023-05-13T02:08:21.603Z,22.26
2023-05-13T02:13:23.249Z,22.27
2023-05-13T02:18:24.688Z,22.27
2023-05-13T02:23:26.392Z,22.27
2023-05-13T02:28:27.769Z,22.24
2023-05-13T02:33:29.158Z,22.21
2023-05-13T02:38:30.547Z,22.19
2023-05-13T02:43:31.931Z,22.23
2023-05-13T02:48:33.319Z,22.22
2023-05-13T02:53:34.699Z,22.22
2023-05-13T02:58:36.605Z,22.21
2023-05-13T03:03:38.086Z,22.19
2023-05-13T03:08:39.561Z,22.18
2023-05-13T03:13:40.954Z,22.19
2023-05-13T03:18:42.438Z,22.20
2023-05-13T03:23:44.047Z,22.16
2023-05-13T03:28:46.100Z,22.16
2023-05-13T03:33:47.495Z,22.14
2023-05-13T03:38:48.959Z,22.16
2023-05-13T03:43:50.472Z,22.17
2023-05-13T03:48:51.885Z,22.19
2023-05-13T03:53:53.287Z,22.15
2023-05-13T03:58:54.693Z,22.11
2023-05-13T04:03:56.081Z,22.14
2023-05-13T04:08:57.488Z,22.16
2023-05-13T04:13:58.866Z,22.14
2023-05-13T04:19:00.405Z,22.16
2023-05-13T04:24:01.857Z,22.10
2023-05-13T04:29:03.506Z,22.09
2023-05-13T04:34:04.884Z,22.12
2023-05-13T04:39:06.286Z,22.15
2023-05-13T04:44:07.659Z,22.13
2023-05-13T04:49:09.127Z,22.09
2023-05-13T04:54:10.690Z,22.16
2023-05-13T04:59:12.094Z,22.20
2023-05-13T05:04:13.763Z,22.12
2023-05-13T05:09:15.265Z,22.11
2023-05-13T05:14:16.952Z,22.13
2023-05-13T05:19:23.653Z,22.13
2023-05-13T05:24:25.187Z,22.18
2023-05-13T05:29:26.560Z,22.20
2023-05-13T05:34:27.986Z,22.25
2023-05-13T05:39:29.372Z,22.28
2023-05-13T05:44:30.739Z,22.32
2023-05-13T05:49:32.127Z,22.33
2023-05-13T05:54:33.514Z,22.34
2023-05-13T05:59:34.921Z,22.34
2023-05-13T06:04:36.365Z,22.34
2023-05-13T06:09:37.767Z,22.34
2023-05-13T06:14:39.179Z,22.36
2023-05-13T06:19:42.559Z,22.38
2023-05-13T06:24:44.771Z,22.37
2023-05-13T06:29:46.345Z,22.41
2023-05-13T06:34:48.305Z,22.40
2023-05-13T06:39:49.788Z,22.42
2023-05-13T06:44:51.164Z,22.43
2023-05-13T06:49:52.547Z,22.42
2023-05-13T06:54:53.924Z,22.48
2023-05-13T06:59:55.330Z,22.50
2023-05-13T07:04:56.761Z,22.50
2023-05-13T07:09:58.158Z,22.53
2023-05-13T07:14:59.590Z,22.57
2023-05-13T07:20:01.002Z,22.57
2023-05-13T07:25:02.495Z,22.55
2023-05-13T07:30:04.073Z,22.58
2023-05-13T07:35:05.749Z,22.61
2023-05-13T07:40:07.760Z,22.59
2023-05-13T07:45:09.784Z,22.59
2023-05-13T07:50:11.180Z,22.58
2023-05-13T07:55:12.586Z,22.58
2023-05-13T08:00:15.408Z,22.57
2023-05-13T08:05:16.787Z,22.54
2023-05-13T08:10:18.190Z,22.57
2023-05-13T08:15:19.754Z,22.56
2023-05-13T08:20:23.016Z,22.56
2023-05-13T08:25:24.670Z,22.54
2023-05-13T08:30:26.068Z,22.52
2023-05-13T08:35:28.492Z,22.53
2023-05-13T08:40:29.957Z,22.49
2023-05-13T08:45:31.368Z,22.50
2023-05-13T08:50:32.767Z,22.49
2023-05-13T08:55:34.151Z,22.51
2023-05-13T09:00:35.545Z,22.50
2023-05-13T09:05:38.765Z,22.51
2023-05-13T09:10:40.511Z,22.53
2023-05-13T09:15:42.208Z,22.55
2023-05-13T09:20:43.675Z,22.53
2023-05-13T09:25:45.139Z,22.58
2023-05-13T09:30:47.076Z,22.63
2023-05-13T09:35:53.427Z,22.61
2023-05-13T09:40:56.370Z,22.64
2023-05-13T09:46:01.457Z,22.66
2023-05-13T09:51:02.937Z,22.68
2023-05-13T09:56:04.440Z,22.70
2023-05-13T10:01:05.866Z,22.76
2023-05-13T10:06:08.064Z,22.78
2023-05-13T10:11:09.449Z,22.78
2023-05-13T10:16:10.853Z,22.79
2023-05-13T10:21:12.565Z,22.82
2023-05-13T10:26:14.160Z,22.82
2023-05-13T10:31:17.244Z,22.82
2023-05-13T10:36:36.435Z,22.81
2023-05-13T10:42:19.896Z,22.85
2023-05-13T10:47:21.357Z,22.83
2023-05-13T10:52:22.770Z,22.83
2023-05-13T10:57:35.755Z,22.84
2023-05-13T11:02:37.242Z,22.83
2023-05-13T11:07:41.764Z,22.83
2023-05-13T11:12:43.162Z,22.80
2023-05-13T11:17:45.709Z,22.78
2023-05-13T11:22:47.155Z,22.76
2023-05-13T11:27:48.623Z,22.76
2023-05-13T11:32:56.863Z,22.75
2023-05-13T11:38:02.350Z,22.74
2023-05-13T11:43:04.921Z,22.74
2023-05-13T11:48:20.176Z,22.74
2023-05-13T11:53:22.228Z,22.71
2023-05-13T11:58:23.710Z,22.70
2023-05-13T12:03:27.547Z,22.71
2023-05-13T12:08:29.842Z,22.69
2023-05-13T12:13:31.226Z,22.65
2023-05-13T12:18:33.644Z,22.63
2023-05-13T12:23:41.141Z,22.61
2023-05-13T12:28:42.696Z,22.61
2023-05-13T12:33:44.425Z,22.59
2023-05-13T12:39:11.278Z,22.57
2023-05-13T12:44:15.913Z,22.55
2023-05-13T12:49:17.314Z,22.52
2023-05-13T12:54:18.847Z,22.54
2023-05-13T12:59:20.267Z,22.53
2023-05-13T13:04:21.689Z,22.51
2023-05-13T13:09:23.098Z,22.51
2023-05-13T13:14:25.988Z,22.49
2023-05-13T13:19:27.428Z,22.50
2023-05-13T13:24:28.836Z,22.49
2023-05-13T13:29:31.210Z,22.52
2023-05-13T13:34:32.610Z,22.49
2023-05-13T13:39:34.743Z,22.51
2023-05-13T13:44:38.235Z,22.49
2023-05-13T13:49:39.626Z,22.50
2023-05-13T13:54:41.051Z,22.48
2023-05-13T13:59:42.430Z,22.48
2023-05-13T14:04:46.296Z,22.50
2023-05-13T14:09:48.273Z,22.48
2023-05-13T14:14:49.665Z,22.48
2023-05-13T14:19:51.752Z,22.48
2023-05-13T14:24:53.219Z,22.50
2023-05-13T14:29:54.643Z,22.50
2023-05-13T14:34:56.276Z,22.50
2023-05-13T14:39:57.685Z,22.49
2023-05-13T14:44:59.083Z,22.51
2023-05-13T14:50:00.566Z,22.45
2023-05-13T14:55:01.940Z,22.41
2023-05-13T15:00:03.831Z,22.40
2023-05-13T15:05:05.658Z,22.41
2023-05-13T15:10:07.388Z,22.44
2023-05-13T15:15:09.687Z,22.41
2023-05-13T15:20:11.632Z,22.43
2023-05-13T15:25:13.084Z,22.45
2023-05-13T15:30:14.620Z,22.43
2023-05-13T15:35:17.376Z,22.44
2023-05-13T15:40:18.843Z,22.44
2023-05-13T15:45:20.222Z,22.43
2023-05-13T15:50:21.903Z,22.46
2023-05-13T15:55:23.460Z,22.44
2023-05-13T16:00:25.012Z,22.46
2023-05-13T16:05:26.448Z,22.39
2023-05-13T16:10:27.870Z,22.41
2023-05-13T16:15:29.242Z,22.43
2023-05-13T16:20:30.684Z,22.40
2023-05-13T16:25:32.066Z,22.35
2023-05-13T16:30:33.617Z,22.38
2023-05-13T16:35:35.502Z,22.34
2023-05-13T16:40:36.909Z,22.34
2023-05-13T16:45:39.280Z,22.32
2023-05-13T16:50:40.782Z,22.30
2023-05-13T16:55:42.174Z,22.30
2023-05-13T17:00:43.665Z,22.27
2023-05-13T17:05:45.070Z,22.33
2023-05-13T17:10:46.446Z,22.28
2023-05-13T17:15:47.876Z,22.33
2023-05-13T17:20:49.264Z,22.28
2023-05-13T17:25:50.812Z,22.29
2023-05-13T17:30:52.441Z,22.25
2023-05-13T17:35:53.831Z,22.29
2023-05-13T17:40:55.287Z,22.28
2023-05-13T17:45:56.661Z,22.32
2023-05-13T17:50:58.081Z,22.33
2023-05-13T17:55:59.523Z,22.29
2023-05-13T18:01:01.152Z,22.25
2023-05-13T18:06:02.559Z,22.30
2023-05-13T18:11:03.982Z,22.25
2023-05-13T18:16:05.988Z,22.23
2023-05-13T18:21:07.446Z,22.20
2023-05-13T18:26:08.818Z,22.24
2023-05-13T18:31:10.380Z,22.28
2023-05-13T18:36:11.789Z,22.28
2023-05-13T18:41:13.218Z,22.26
2023-05-13T18:46:14.616Z,22.26
2023-05-13T18:51:16.366Z,22.30
2023-05-13T18:56:17.780Z,22.29
2023-05-13T19:01:19.362Z,22.28
2023-05-13T19:06:20.893Z,22.26
2023-05-13T19:11:22.564Z,22.30
2023-05-13T19:16:24.525Z,22.29
2023-05-13T19:21:26.195Z,22.30
2023-05-13T19:26:27.561Z,22.26
2023-05-13T19:31:30.090Z,22.28
2023-05-13T19:36:31.657Z,22.30
2023-05-13T19:41:34.365Z,22.25
2023-05-13T19:46:35.816Z,22.24
2023-05-13T19:51:37.243Z,22.26
2023-05-13T19:56:38.630Z,22.22
2023-05-13T20:01:40.064Z,22.19
2023-05-13T20:06:41.508Z,22.21
2023-05-13T20:11:42.910Z,22.19
2023-05-13T20:16:44.357Z,22.16
2023-05-13T20:21:46.094Z,22.20
2023-05-13T20:26:47.505Z,22.17
2023-05-13T20:31:48.963Z,22.18
2023-05-13T20:36:50.397Z,22.18
2023-05-13T20:41:51.817Z,22.18
2023-05-13T20:46:53.198Z,22.21
2023-05-13T20:51:54.691Z,22.25
2023-05-13T20:56:56.139Z,22.27
2023-05-13T21:01:57.687Z,22.23
2023-05-13T21:06:59.193Z,22.23
2023-05-13T21:12:00.581Z,22.23
2023-05-13T21:17:03.327Z,22.23
2023-05-13T21:22:05.753Z,22.25
2023-05-13T21:27:07.135Z,22.24
2023-05-13T21:32:08.552Z,22.21
2023-05-13T21:37:09.935Z,22.24
2023-05-13T21:42:11.310Z,22.25
2023-05-13T21:47:12.694Z,22.25
2023-05-13T21:52:14.087Z,22.23
2023-05-13T21:57:15.514Z,22.17
2023-05-13T22:02:16.933Z,22.16
2023-05-13T22:07:18.401Z,22.18
2023-05-13T22:12:21.013Z,22.12
2023-05-13T22:17:22.591Z,22.19
2023-05-13T22:22:24.160Z,22.19
2023-05-13T22:27:25.545Z,22.20
2023-05-13T22:32:27.023Z,22.21
2023-05-13T22:37:28.441Z,22.20
2023-05-13T22:42:29.832Z,22.22
2023-05-13T22:47:31.252Z,22.22
2023-05-13T22:52:32.663Z,22.12
2023-05-13T22:57:34.077Z,22.16
2023-05-13T23:02:35.527Z,22.18
2023-05-13T23:07:36.935Z,22.21
2023-05-13T23:12:38.464Z,22.21
2023-05-13T23:17:39.885Z,22.21
2023-05-13T23:22:41.782Z,22.20
2023-05-13T23:27:43.203Z,22.20
2023-05-13T23:32:44.799Z,22.13
2023-05-13T23:37:46.259Z,22.16
2023-05-13T23:42:47.637Z,22.16
2023-05-13T23:47:49.986Z,22.17
2023-05-13T23:52:51.414Z,22.20
2023-05-13T23:57:52.787Z,22.18
